Главная страница
METAR-TAF:

METAR-TAF

Аэропорты :

Савонлинна, Финляндия

широта: 61-57N, долгота: 028-57E, высота над уровнем моря: 95 м

Текущие метеонаблюдения

Эта сводка был подготовлена 24 минут назад, в 19:20 UTC
Ветер 3 Узел от восточный
Температура 1°C
Влажность 93%
Давление 1002 hPa
Видимость 10 км и более
Сплошная облачность на высоте 4800 фута

METAR: EFSA 191920Z AUTO 09003KT 9999 OVC048 01/00 Q1002

Время: 21:44 (19:44 UTC)


TAF: отсутствует

Метеонаблюдения и прогнозы для более 4000 аэропортов (сводки METAR и TAF).

Имеющиеся станции представлены на карте желтыми и красными точками.

Чтобы увидеть название станции, наведите на нее мышь.

Затем щелкните, чтобы увидеть метеонаблюдения и метеопрогнозы.

Управление картой: чтобы увеличить масштаб, щелкните зеленые кнопки с черным крестиком; чтобы уменьшить масштаб, щелкните зеленую кнопку с тире; для просмотра соседних карт щелкайте зеленые стрелки.


METAR-TAF: